createdAt,value
2019-01-31T00:01:53.657Z,1.30
2019-01-31T00:04:35.129Z,1.30
2019-01-31T00:07:16.268Z,1.30
2019-01-31T00:09:57.582Z,1.30
2019-01-31T00:12:38.210Z,1.30
2019-01-31T00:15:19.112Z,1.20
2019-01-31T00:18:00.481Z,1.20
2019-01-31T00:20:41.103Z,1.20
2019-01-31T00:25:44.188Z,1.10
2019-01-31T00:28:25.103Z,1.10
2019-01-31T00:31:06.340Z,1.00
2019-01-31T00:33:47.817Z,1.00
2019-01-31T00:36:28.587Z,0.90
2019-01-31T00:39:09.918Z,0.90
2019-01-31T00:41:50.508Z,0.80
2019-01-31T00:47:44.043Z,0.70
2019-01-31T00:50:25.417Z,0.60
2019-01-31T00:53:05.978Z,0.50
2019-01-31T00:55:46.590Z,0.50
2019-01-31T00:58:27.140Z,0.40
2019-01-31T01:01:08.509Z,0.40
2019-01-31T01:03:49.872Z,0.30
2019-01-31T01:06:31.235Z,0.20
2019-01-31T01:09:12.014Z,0.00
2019-01-31T01:11:53.614Z,0.00
2019-01-31T01:14:34.256Z,-0.10
2019-01-31T01:17:15.044Z,-0.20
2019-01-31T01:19:56.304Z,-0.30
2019-01-31T01:22:37.051Z,-0.30
2019-01-31T01:25:17.801Z,-0.40
2019-01-31T01:27:58.414Z,-0.40
2019-01-31T01:30:39.601Z,-0.50
2019-01-31T03:42:24.337Z,-1.30
2019-01-31T03:45:50.755Z,-1.40
2019-01-31T03:48:50.626Z,-1.40
2019-01-31T03:51:48.887Z,-1.50
2019-01-31T03:54:38.565Z,-1.50
2019-01-31T03:57:51.882Z,-1.50
2019-01-31T04:01:02.655Z,-1.50
2019-01-31T04:03:56.188Z,-1.60
2019-01-31T04:06:28.787Z,-1.60
2019-01-31T04:08:58.118Z,-1.60
2019-01-31T04:11:27.463Z,-1.60
2019-01-31T04:13:56.855Z,-1.60
2019-01-31T04:16:26.187Z,-1.70
2019-01-31T04:18:55.520Z,-1.60
2019-01-31T04:21:24.856Z,-1.70
2019-01-31T04:23:54.161Z,-1.70
2019-01-31T04:26:24.015Z,-1.70
2019-01-31T04:28:53.334Z,-1.70
2019-01-31T04:31:22.633Z,-1.70
2019-01-31T04:33:52.021Z,-1.80
2019-01-31T04:36:21.407Z,-1.70
2019-01-31T04:38:50.820Z,-1.80
2019-01-31T04:41:20.254Z,-1.80
2019-01-31T04:43:49.650Z,-1.80
2019-01-31T04:46:19.066Z,-1.80
2019-01-31T04:48:48.432Z,-1.80
2019-01-31T04:51:17.775Z,-1.80
2019-01-31T04:53:47.222Z,-1.80
2019-01-31T04:56:16.775Z,-1.80
2019-01-31T04:58:46.170Z,-1.70
2019-01-31T05:01:15.572Z,-1.80
2019-01-31T05:03:44.934Z,-1.70
2019-01-31T05:06:14.238Z,-1.80
2019-01-31T05:08:43.579Z,-1.70
2019-01-31T05:11:12.925Z,-1.70
2019-01-31T05:13:42.313Z,-1.70
2019-01-31T05:16:11.791Z,-1.60
2019-01-31T05:18:41.186Z,-1.60
2019-01-31T05:21:10.525Z,-1.60
2019-01-31T05:23:39.893Z,-1.60
2019-01-31T05:26:08.885Z,-1.50
2019-01-31T05:28:38.276Z,-1.50
2019-01-31T05:31:07.653Z,-1.50
2019-01-31T05:33:37.172Z,-1.50
2019-01-31T05:36:06.556Z,-1.50
2019-01-31T05:38:35.881Z,-1.50
2019-01-31T05:41:05.195Z,-1.50
2019-01-31T05:43:34.556Z,-1.50
2019-01-31T05:46:03.894Z,-1.40
2019-01-31T05:48:33.251Z,-1.40
2019-01-31T05:51:02.612Z,-1.40
2019-01-31T05:53:32.000Z,-1.30
2019-01-31T05:56:01.331Z,-1.30
2019-01-31T05:58:30.658Z,-1.30
2019-01-31T06:01:00.053Z,-1.20
2019-01-31T06:03:29.437Z,-1.20
2019-01-31T06:05:58.805Z,-1.10
2019-01-31T06:08:28.244Z,-1.10
2019-01-31T06:11:07.194Z,-1.10
2019-01-31T06:13:29.279Z,-1.00
2019-01-31T06:15:58.741Z,-1.00
2019-01-31T06:18:28.108Z,-1.00
2019-01-31T06:20:57.569Z,-1.00
2019-01-31T06:23:26.948Z,-0.90
2019-01-31T06:25:56.454Z,-1.00
2019-01-31T06:28:25.871Z,-0.90
2019-01-31T06:30:55.286Z,-0.90
2019-01-31T06:33:24.628Z,-0.90
2019-01-31T06:35:54.147Z,-0.90
2019-01-31T06:38:23.477Z,-0.80
2019-01-31T06:40:53.089Z,-0.80
2019-01-31T06:43:22.549Z,-0.80
2019-01-31T06:45:52.037Z,-0.80
2019-01-31T06:48:21.478Z,-0.80
2019-01-31T06:50:50.944Z,-0.70
2019-01-31T06:53:20.347Z,-0.70
2019-01-31T06:55:49.883Z,-0.70
2019-01-31T06:58:19.270Z,-0.70
2019-01-31T07:00:48.622Z,-0.60
2019-01-31T07:03:17.963Z,-0.60
2019-01-31T07:05:47.322Z,-0.60
2019-01-31T07:08:16.866Z,-0.60
2019-01-31T07:10:46.302Z,-0.60
2019-01-31T07:13:15.756Z,-0.60
2019-01-31T07:15:45.687Z,-0.60
2019-01-31T07:18:15.440Z,-0.60
2019-01-31T07:20:44.971Z,-0.50
2019-01-31T07:23:14.484Z,-0.50
2019-01-31T07:25:43.903Z,-0.40
2019-01-31T07:28:13.276Z,-0.30
2019-01-31T07:30:42.612Z,-0.30
2019-01-31T07:33:11.993Z,-0.20
2019-01-31T07:35:41.350Z,-0.20
2019-01-31T07:38:10.780Z,-0.20
2019-01-31T07:40:40.114Z,-0.20
2019-01-31T07:43:09.471Z,-0.10
2019-01-31T07:45:38.860Z,0.00
2019-01-31T07:48:08.310Z,0.10
2019-01-31T07:50:37.707Z,0.10
2019-01-31T07:53:07.124Z,0.20
2019-01-31T07:55:36.476Z,0.20
2019-01-31T07:58:05.860Z,0.20
2019-01-31T08:00:35.230Z,0.30
2019-01-31T08:03:05.180Z,0.30
2019-01-31T08:05:34.539Z,0.30
2019-01-31T08:08:03.996Z,0.30
2019-01-31T08:10:36.203Z,0.40
2019-01-31T08:13:05.678Z,0.40
2019-01-31T08:15:34.999Z,0.40
2019-01-31T08:18:04.359Z,0.50
2019-01-31T08:20:33.930Z,0.50
2019-01-31T08:23:03.177Z,0.60
2019-01-31T08:25:32.521Z,0.60
2019-01-31T08:28:02.188Z,0.60
2019-01-31T08:30:33.591Z,0.70
2019-01-31T08:33:03.007Z,0.70
2019-01-31T08:35:32.335Z,0.70
2019-01-31T08:38:01.695Z,0.70
2019-01-31T08:40:30.978Z,0.70
2019-01-31T08:43:00.342Z,0.70
2019-01-31T08:45:29.951Z,0.80
2019-01-31T08:47:59.853Z,0.70
2019-01-31T08:50:29.697Z,0.80
2019-01-31T08:52:59.507Z,0.80
2019-01-31T08:55:29.080Z,0.90
2019-01-31T08:57:58.759Z,0.90
2019-01-31T09:00:29.771Z,1.00
2019-01-31T09:03:00.073Z,1.10
2019-01-31T09:05:29.884Z,1.10
2019-01-31T09:07:59.938Z,1.20
2019-01-31T09:10:35.575Z,1.20
2019-01-31T09:13:08.168Z,1.30
2019-01-31T09:15:38.150Z,1.40
2019-01-31T09:18:08.487Z,1.40
2019-01-31T09:20:51.377Z,1.50
2019-01-31T09:23:36.710Z,1.50
2019-01-31T09:26:59.181Z,1.60
2019-01-31T09:30:07.182Z,1.70
2019-01-31T09:33:13.924Z,1.70
2019-01-31T09:36:12.172Z,1.80
2019-01-31T09:39:13.746Z,1.80
2019-01-31T09:42:26.104Z,2.00
2019-01-31T09:45:28.012Z,2.10
2019-01-31T09:48:21.164Z,2.30
2019-01-31T09:51:27.480Z,2.50
2019-01-31T09:54:20.123Z,2.70
2019-01-31T09:57:24.636Z,3.00
2019-01-31T10:00:27.234Z,3.20
2019-01-31T10:03:20.876Z,3.30
2019-01-31T10:06:27.333Z,3.40
2019-01-31T10:09:33.590Z,3.40
2019-01-31T10:12:42.480Z,3.40
2019-01-31T10:15:37.717Z,3.30
2019-01-31T10:18:47.024Z,3.10
2019-01-31T10:21:34.463Z,3.00
2019-01-31T10:24:54.516Z,2.80
2019-01-31T10:27:49.004Z,2.70
2019-01-31T10:30:53.649Z,2.50
2019-01-31T10:33:53.820Z,2.40
2019-01-31T10:36:47.457Z,2.40
2019-01-31T10:39:43.895Z,2.40
2019-01-31T10:42:52.339Z,2.40
2019-01-31T10:46:08.483Z,2.40
2019-01-31T10:49:11.498Z,2.60
2019-01-31T10:52:10.442Z,2.80
2019-01-31T10:55:17.379Z,3.00
2019-01-31T10:58:35.250Z,3.10
2019-01-31T11:01:44.315Z,3.40
2019-01-31T11:04:54.337Z,3.50
2019-01-31T11:07:59.779Z,3.50
2019-01-31T11:10:38.524Z,3.40
2019-01-31T11:13:56.004Z,3.30
2019-01-31T11:17:07.028Z,3.20
2019-01-31T11:19:59.121Z,2.90
2019-01-31T11:22:56.803Z,2.70
2019-01-31T11:26:05.230Z,2.70
2019-01-31T11:29:18.491Z,2.60
2019-01-31T11:32:21.251Z,2.60
2019-01-31T11:35:33.743Z,2.70
2019-01-31T11:38:34.587Z,2.80
2019-01-31T11:41:43.884Z,3.00
2019-01-31T11:44:50.020Z,3.30
2019-01-31T11:48:03.438Z,3.60
2019-01-31T11:51:09.173Z,4.00
2019-01-31T11:54:18.736Z,4.20
2019-01-31T11:57:39.147Z,4.40
2019-01-31T12:00:12.801Z,4.30
2019-01-31T12:02:42.132Z,4.30
2019-01-31T12:05:11.856Z,4.20
2019-01-31T12:07:41.375Z,4.20
2019-01-31T12:10:11.279Z,4.20
2019-01-31T12:12:43.638Z,4.10
2019-01-31T12:15:11.945Z,4.20
2019-01-31T12:17:41.343Z,4.20
2019-01-31T12:20:11.224Z,4.20
2019-01-31T12:22:40.560Z,4.20
2019-01-31T12:25:09.951Z,4.30
2019-01-31T12:27:39.368Z,4.40
2019-01-31T12:30:16.595Z,4.50
2019-01-31T12:32:46.146Z,4.50
2019-01-31T12:35:15.564Z,4.40
2019-01-31T12:37:44.892Z,4.30
2019-01-31T12:40:16.284Z,4.20
2019-01-31T12:42:45.876Z,4.10
2019-01-31T12:45:16.836Z,4.10
2019-01-31T12:47:46.341Z,3.90
2019-01-31T12:50:18.481Z,3.80
2019-01-31T12:52:47.860Z,3.60
2019-01-31T12:55:17.267Z,3.40
2019-01-31T12:57:46.614Z,3.40
2019-01-31T13:00:19.932Z,3.40
2019-01-31T13:02:49.464Z,3.40
2019-01-31T13:05:18.962Z,3.40
2019-01-31T13:07:48.313Z,3.50
2019-01-31T13:10:17.753Z,3.40
2019-01-31T13:12:48.799Z,3.40
2019-01-31T13:15:18.507Z,3.60
2019-01-31T13:17:48.133Z,3.60
2019-01-31T13:20:21.978Z,3.50
2019-01-31T13:22:53.559Z,3.60
2019-01-31T13:25:24.522Z,3.70
2019-01-31T13:27:54.047Z,3.70
2019-01-31T13:30:23.453Z,3.90
2019-01-31T13:32:53.664Z,4.10
2019-01-31T13:35:23.023Z,4.20
2019-01-31T13:37:52.367Z,4.30
2019-01-31T13:40:23.508Z,4.40
2019-01-31T13:42:53.632Z,4.40
2019-01-31T13:45:28.657Z,4.50
2019-01-31T13:48:00.462Z,4.60
2019-01-31T13:50:29.893Z,4.60
2019-01-31T13:52:59.252Z,4.50
2019-01-31T13:55:30.082Z,4.30
2019-01-31T13:57:59.564Z,4.10
2019-01-31T14:00:28.886Z,4.00
2019-01-31T14:02:58.256Z,3.80
2019-01-31T14:05:29.789Z,3.70
2019-01-31T14:07:58.692Z,3.60
2019-01-31T14:10:28.072Z,3.60
2019-01-31T14:12:57.380Z,3.60
2019-01-31T14:15:34.166Z,3.60
2019-01-31T14:18:03.706Z,3.50
2019-01-31T14:20:33.189Z,3.40
2019-01-31T14:23:02.556Z,3.40
2019-01-31T14:25:31.919Z,3.30
2019-01-31T14:28:01.254Z,3.10
2019-01-31T14:30:32.867Z,3.00
2019-01-31T14:33:02.507Z,3.10
2019-01-31T14:35:32.056Z,3.10
2019-01-31T14:38:03.939Z,3.10
2019-01-31T14:40:33.351Z,3.00
2019-01-31T14:43:02.685Z,3.10
2019-01-31T14:45:32.110Z,3.10
2019-01-31T14:48:01.432Z,3.10
2019-01-31T14:50:32.296Z,3.20
2019-01-31T14:53:01.656Z,3.10
2019-01-31T14:55:31.040Z,3.10
2019-01-31T14:58:00.402Z,3.10
2019-01-31T15:00:31.001Z,3.20
2019-01-31T15:03:00.355Z,3.20
2019-01-31T15:05:29.768Z,3.10
2019-01-31T15:07:59.152Z,3.20
2019-01-31T15:10:29.026Z,3.20
2019-01-31T15:12:58.562Z,3.00
2019-01-31T15:15:27.937Z,2.90
2019-01-31T15:17:57.355Z,2.90
2019-01-31T15:20:37.581Z,2.90
2019-01-31T15:23:00.066Z,2.80
2019-01-31T15:25:29.389Z,2.70
2019-01-31T15:27:58.798Z,2.70
2019-01-31T15:30:30.536Z,2.60
2019-01-31T15:33:00.461Z,2.60
2019-01-31T15:35:29.846Z,2.50
2019-01-31T15:37:59.195Z,2.40
2019-01-31T15:40:31.732Z,2.30
2019-01-31T15:43:01.109Z,2.30
2019-01-31T15:45:30.472Z,2.20
2019-01-31T15:47:59.813Z,2.10
2019-01-31T15:50:29.164Z,1.90
2019-01-31T15:52:58.550Z,1.80
2019-01-31T15:55:28.055Z,1.70
2019-01-31T15:57:57.608Z,1.60
2019-01-31T16:00:36.580Z,1.50
2019-01-31T16:03:07.285Z,1.40
2019-01-31T16:05:37.040Z,1.20
2019-01-31T16:08:06.682Z,1.10
2019-01-31T16:10:36.078Z,1.10
2019-01-31T16:13:06.257Z,0.90
2019-01-31T16:15:35.832Z,0.80
2019-01-31T16:18:06.459Z,0.80
2019-01-31T16:20:35.926Z,0.70
2019-01-31T16:23:05.777Z,0.70
2019-01-31T16:25:35.128Z,0.60
2019-01-31T16:28:04.896Z,0.50
2019-01-31T16:30:34.484Z,0.50
2019-01-31T16:33:04.076Z,0.40
2019-01-31T16:35:33.554Z,0.40
2019-01-31T16:38:02.921Z,0.40
2019-01-31T16:40:32.317Z,0.40
2019-01-31T16:43:01.755Z,0.30
2019-01-31T16:45:31.145Z,0.20
2019-01-31T16:48:00.499Z,0.20
2019-01-31T16:50:29.897Z,0.10
2019-01-31T16:52:59.282Z,0.10
2019-01-31T16:55:28.735Z,0.10
2019-01-31T16:57:58.089Z,0.00
2019-01-31T17:00:29.151Z,0.00
2019-01-31T17:02:58.632Z,0.00
2019-01-31T17:05:29.904Z,-0.10
2019-01-31T17:07:59.279Z,-0.10
2019-01-31T17:10:28.834Z,-0.10
2019-01-31T17:12:58.204Z,-0.10
2019-01-31T17:15:27.843Z,-0.10
2019-01-31T17:17:57.367Z,-0.20
2019-01-31T17:20:32.672Z,-0.20
2019-01-31T17:23:04.797Z,-0.30
2019-01-31T17:25:34.211Z,-0.30
2019-01-31T17:28:03.788Z,-0.30
2019-01-31T17:30:33.181Z,-0.40
2019-01-31T17:33:02.550Z,-0.40
2019-01-31T17:35:31.893Z,-0.40
2019-01-31T17:38:01.276Z,-0.50
2019-01-31T17:40:33.178Z,-0.50
2019-01-31T17:43:02.544Z,-0.50
2019-01-31T17:45:31.930Z,-0.60
2019-01-31T17:48:01.303Z,-0.60
2019-01-31T17:50:30.669Z,-0.60
2019-01-31T17:53:00.032Z,-0.60
2019-01-31T17:55:29.362Z,-0.60
2019-01-31T17:57:59.165Z,-0.60
2019-01-31T18:00:40.717Z,-0.70
2019-01-31T18:03:10.095Z,-0.70
2019-01-31T18:05:39.525Z,-0.70
2019-01-31T18:08:09.513Z,-0.70
2019-01-31T18:10:39.120Z,-0.70
2019-01-31T18:13:08.481Z,-0.70
2019-01-31T18:15:42.327Z,-0.80
2019-01-31T18:18:09.006Z,-0.80
2019-01-31T18:20:38.400Z,-0.70
2019-01-31T18:23:07.801Z,-0.80
2019-01-31T18:25:37.144Z,-0.80
2019-01-31T18:28:06.597Z,-0.80
2019-01-31T18:30:36.059Z,-0.80
2019-01-31T18:33:05.696Z,-0.80
2019-01-31T18:35:35.093Z,-0.80
2019-01-31T18:38:04.886Z,-0.80
2019-01-31T18:40:34.454Z,-0.80
2019-01-31T18:43:03.788Z,-0.80
2019-01-31T18:45:33.359Z,-0.80
2019-01-31T18:48:03.163Z,-0.80
2019-01-31T18:50:34.677Z,-0.80
2019-01-31T18:53:04.229Z,-0.80
2019-01-31T18:55:33.826Z,-0.80
2019-01-31T18:58:03.204Z,-0.80
2019-01-31T19:00:35.057Z,-0.80
2019-01-31T19:03:04.742Z,-0.80
2019-01-31T19:05:34.170Z,-0.70
2019-01-31T19:08:05.610Z,-0.70
2019-01-31T19:10:42.812Z,-0.70
2019-01-31T19:13:06.270Z,-0.70
2019-01-31T19:15:35.662Z,-0.70
2019-01-31T19:18:06.515Z,-0.70
2019-01-31T19:20:36.284Z,-0.70
2019-01-31T19:23:07.032Z,-0.80
2019-01-31T19:25:36.413Z,-0.80
2019-01-31T19:28:06.549Z,-0.80
2019-01-31T19:30:37.620Z,-0.70
2019-01-31T19:33:07.756Z,-0.70
2019-01-31T19:35:37.576Z,-0.70
2019-01-31T19:38:08.427Z,-0.70
2019-01-31T19:40:39.728Z,-0.70
2019-01-31T19:43:09.135Z,-0.70
2019-01-31T19:45:43.577Z,-0.80
2019-01-31T19:48:13.484Z,-0.80
2019-01-31T19:50:43.704Z,-0.80
2019-01-31T19:53:13.153Z,-0.80
2019-01-31T19:55:43.004Z,-0.80
2019-01-31T19:58:12.620Z,-0.80
2019-01-31T20:00:42.093Z,-0.80
2019-01-31T20:03:11.858Z,-0.90
2019-01-31T20:05:42.009Z,-0.80
2019-01-31T20:08:12.343Z,-0.90
2019-01-31T20:10:42.017Z,-0.90
2019-01-31T20:13:11.525Z,-0.90
2019-01-31T20:15:41.980Z,-0.90
2019-01-31T20:18:11.705Z,-0.90
2019-01-31T20:20:42.712Z,-0.90
2019-01-31T20:23:12.361Z,-0.90
2019-01-31T20:25:41.799Z,-0.90
2019-01-31T20:28:12.092Z,-0.90
2019-01-31T20:30:41.481Z,-0.90
2019-01-31T20:33:11.325Z,-0.90
2019-01-31T20:35:41.011Z,-0.90
2019-01-31T20:38:12.984Z,-0.90
2019-01-31T20:40:43.381Z,-0.90
2019-01-31T20:43:13.012Z,-0.80
2019-01-31T20:45:42.417Z,-0.80
2019-01-31T20:48:11.872Z,-0.80
2019-01-31T20:50:42.412Z,-0.80
2019-01-31T20:53:11.948Z,-0.80
2019-01-31T20:55:41.579Z,-0.80
2019-01-31T20:58:10.944Z,-0.80
2019-01-31T21:00:47.462Z,-0.80
2019-01-31T21:03:16.855Z,-0.80
2019-01-31T21:05:46.260Z,-0.80
2019-01-31T21:08:15.870Z,-0.80
2019-01-31T21:10:45.464Z,-0.80
2019-01-31T21:13:14.936Z,-0.80
2019-01-31T21:15:44.607Z,-0.70
2019-01-31T21:18:14.087Z,-0.80
2019-01-31T21:20:43.607Z,-0.80
2019-01-31T21:23:13.163Z,-0.70
2019-01-31T21:25:42.690Z,-0.70
2019-01-31T21:28:12.073Z,-0.70
2019-01-31T21:30:43.102Z,-0.70
2019-01-31T21:33:12.491Z,-0.70
2019-01-31T21:35:42.631Z,-0.70
2019-01-31T21:38:12.205Z,-0.60
2019-01-31T21:40:41.760Z,-0.60
2019-01-31T21:43:11.236Z,-0.60
2019-01-31T21:45:41.214Z,-0.60
2019-01-31T21:48:11.291Z,-0.50
2019-01-31T21:50:40.732Z,-0.50
2019-01-31T21:53:10.320Z,-0.50
2019-01-31T21:55:39.955Z,-0.50
2019-01-31T21:58:09.528Z,-0.50
2019-01-31T22:00:39.288Z,-0.50
2019-01-31T22:03:09.287Z,-0.50
2019-01-31T22:05:38.740Z,-0.40
2019-01-31T22:08:08.195Z,-0.40
2019-01-31T22:10:37.554Z,-0.40
2019-01-31T22:13:07.069Z,-0.30
2019-01-31T22:15:36.857Z,-0.40
2019-01-31T22:18:07.290Z,-0.30
2019-01-31T22:20:36.885Z,-0.30
2019-01-31T22:23:06.572Z,-0.30
2019-01-31T22:25:35.894Z,-0.30
2019-01-31T22:28:05.910Z,-0.30
2019-01-31T22:30:36.988Z,-0.20
2019-01-31T22:33:08.057Z,-0.20
2019-01-31T22:35:37.500Z,-0.20
2019-01-31T22:38:07.188Z,-0.20
2019-01-31T22:40:36.647Z,-0.10
2019-01-31T22:43:06.460Z,0.00
2019-01-31T22:45:35.873Z,0.00
2019-01-31T22:48:07.007Z,0.00
2019-01-31T22:50:36.497Z,0.10
2019-01-31T22:53:06.173Z,0.10
2019-01-31T22:55:35.488Z,0.20
2019-01-31T22:58:05.508Z,0.20
2019-01-31T23:01:27.221Z,0.20
2019-01-31T23:03:56.762Z,0.20
2019-01-31T23:06:26.347Z,0.30
2019-01-31T23:08:55.739Z,0.30
2019-01-31T23:11:25.044Z,0.40
2019-01-31T23:13:54.654Z,0.40
2019-01-31T23:16:24.156Z,0.40
2019-01-31T23:18:53.532Z,0.50
2019-01-31T23:21:22.894Z,0.50
2019-01-31T23:23:52.448Z,0.50
2019-01-31T23:26:24.533Z,0.50
2019-01-31T23:28:53.894Z,0.60
2019-01-31T23:31:23.231Z,0.60
2019-01-31T23:33:52.572Z,0.60
2019-01-31T23:36:21.893Z,0.60
2019-01-31T23:38:51.221Z,0.70
2019-01-31T23:41:20.602Z,0.70
2019-01-31T23:43:49.911Z,0.70
2019-01-31T23:46:19.361Z,0.80
2019-01-31T23:48:50.598Z,0.80
2019-01-31T23:51:19.899Z,0.80
2019-01-31T23:53:49.282Z,0.80
2019-01-31T23:56:19.005Z,0.90
2019-01-31T23:58:48.417Z,0.90
